createdAt,value
2023-04-27T00:00:39.497Z,94546.00
2023-04-27T00:01:39.533Z,94546.00
2023-04-27T00:02:39.567Z,94548.00
2023-04-27T00:03:39.605Z,94550.00
2023-04-27T00:04:39.690Z,94548.00
2023-04-27T00:05:39.770Z,94544.00
2023-04-27T00:06:39.458Z,94544.00
2023-04-27T00:07:39.442Z,94544.00
2023-04-27T00:08:39.456Z,94543.00
2023-04-27T00:09:39.416Z,94544.00
2023-04-27T00:10:39.418Z,94543.00
2023-04-27T00:11:39.410Z,94544.00
2023-04-27T00:12:39.424Z,94544.00
2023-04-27T00:13:39.404Z,94544.00
2023-04-27T00:14:39.398Z,94544.00
2023-04-27T00:15:39.563Z,94544.00
2023-04-27T00:16:39.424Z,94544.00
2023-04-27T00:17:39.401Z,94543.00
2023-04-27T00:18:39.368Z,94543.00
2023-04-27T00:19:39.354Z,94541.00
2023-04-27T00:20:39.340Z,94541.00
2023-04-27T00:21:39.349Z,94537.00
2023-04-27T00:22:39.351Z,94539.00
2023-04-27T00:23:39.325Z,94539.00
2023-04-27T00:24:39.338Z,94537.00
2023-04-27T00:25:39.311Z,94537.00
2023-04-27T00:26:39.334Z,94537.00
2023-04-27T00:27:39.302Z,94537.00
2023-04-27T00:28:39.302Z,94537.00
2023-04-27T00:29:39.294Z,94535.00
2023-04-27T00:30:39.285Z,94535.00
2023-04-27T00:31:39.341Z,94535.00
2023-04-27T00:32:39.372Z,94531.00
2023-04-27T00:33:39.261Z,94533.00
2023-04-27T00:34:39.261Z,94531.00
2023-04-27T00:35:39.275Z,94533.00
2023-04-27T00:36:39.224Z,94533.00
2023-04-27T00:37:39.236Z,94533.00
2023-04-27T00:38:39.217Z,94531.00
2023-04-27T00:39:39.209Z,94531.00
2023-04-27T00:40:39.192Z,94533.00
2023-04-27T00:41:39.184Z,94529.00
2023-04-27T00:42:39.175Z,94531.00
2023-04-27T00:43:39.188Z,94531.00
2023-04-27T00:44:39.907Z,94527.00
2023-04-27T00:45:39.192Z,94527.00
2023-04-27T00:46:39.146Z,94527.00
2023-04-27T00:47:39.165Z,94527.00
2023-04-27T00:48:39.120Z,94523.00
2023-04-27T00:49:39.127Z,94525.00
2023-04-27T00:50:39.126Z,94525.00
2023-04-27T00:51:39.133Z,94527.00
2023-04-27T00:52:39.106Z,94529.00
2023-04-27T00:53:39.137Z,94527.00
2023-04-27T00:54:39.094Z,94527.00
2023-04-27T00:55:39.132Z,94529.00
2023-04-27T00:56:39.077Z,94531.00
2023-04-27T00:57:39.142Z,94531.00
2023-04-27T00:58:39.072Z,94533.00
2023-04-27T00:59:39.102Z,94533.00
2023-04-27T01:00:39.071Z,94533.00
2023-04-27T01:01:39.241Z,94533.00
2023-04-27T01:02:39.322Z,94529.00
2023-04-27T01:03:39.246Z,94527.00
2023-04-27T01:04:39.111Z,94529.00
2023-04-27T01:05:39.048Z,94527.00
2023-04-27T01:06:39.005Z,94527.00
2023-04-27T01:07:39.024Z,94527.00
2023-04-27T01:08:38.999Z,94527.00
2023-04-27T01:09:38.994Z,94529.00
2023-04-27T01:10:38.990Z,94531.00
2023-04-27T01:11:38.994Z,94533.00
2023-04-27T01:12:38.981Z,94533.00
2023-04-27T01:13:38.969Z,94531.00
2023-04-27T01:14:38.951Z,94531.00
2023-04-27T01:15:38.965Z,94529.00
2023-04-27T01:16:39.009Z,94527.00
2023-04-27T01:17:38.976Z,94527.00
2023-04-27T01:18:38.917Z,94525.00
2023-04-27T01:19:38.908Z,94527.00
2023-04-27T01:20:39.130Z,94529.00
2023-04-27T01:21:38.910Z,94525.00
2023-04-27T01:22:38.905Z,94525.00
2023-04-27T01:23:38.901Z,94525.00
2023-04-27T01:24:38.884Z,94525.00
2023-04-27T01:25:38.899Z,94519.00
2023-04-27T01:26:38.884Z,94519.00
2023-04-27T01:27:38.860Z,94517.00
2023-04-27T01:28:38.866Z,94517.00
2023-04-27T01:29:38.858Z,94519.00
2023-04-27T01:30:38.843Z,94519.00
2023-04-27T01:31:38.988Z,94521.00
2023-04-27T01:32:38.920Z,94519.00
2023-04-27T01:33:38.805Z,94521.00
2023-04-27T01:34:38.823Z,94521.00
2023-04-27T01:35:38.811Z,94521.00
2023-04-27T01:36:38.824Z,94521.00
2023-04-27T01:37:38.811Z,94517.00
2023-04-27T01:38:38.775Z,94519.00
2023-04-27T01:39:38.778Z,94519.00
2023-04-27T01:40:38.796Z,94519.00
2023-04-27T01:41:38.789Z,94521.00
2023-04-27T01:42:38.764Z,94517.00
2023-04-27T01:43:38.777Z,94517.00
2023-04-27T01:44:38.744Z,94515.00
2023-04-27T01:45:38.728Z,94513.00
2023-04-27T01:46:38.822Z,94515.00
2023-04-27T01:47:38.753Z,94515.00
2023-04-27T01:48:38.700Z,94515.00
2023-04-27T01:49:38.716Z,94517.00
2023-04-27T01:50:38.714Z,94517.00
2023-04-27T01:51:38.702Z,94517.00
2023-04-27T01:52:38.700Z,94517.00
2023-04-27T01:53:38.678Z,94515.00
2023-04-27T01:54:38.672Z,94513.00
2023-04-27T01:55:38.690Z,94513.00
2023-04-27T01:56:38.642Z,94511.00
2023-04-27T01:57:38.631Z,94513.00
2023-04-27T01:58:38.637Z,94515.00
2023-04-27T01:59:38.622Z,94517.00
2023-04-27T02:00:38.610Z,94519.00
2023-04-27T02:01:38.699Z,94521.00
2023-04-27T02:02:38.724Z,94523.00
2023-04-27T02:03:38.759Z,94525.00
2023-04-27T02:04:38.796Z,94529.00
2023-04-27T02:05:38.703Z,94533.00
2023-04-27T02:06:38.591Z,94535.00
2023-04-27T02:07:38.605Z,94535.00
2023-04-27T02:08:38.586Z,94535.00
2023-04-27T02:09:38.581Z,94531.00
2023-04-27T02:10:38.571Z,94531.00
2023-04-27T02:11:38.591Z,94529.00
2023-04-27T02:12:38.528Z,94529.00
2023-04-27T02:13:38.547Z,94531.00
2023-04-27T02:14:38.545Z,94531.00
2023-04-27T02:15:38.522Z,94535.00
2023-04-27T02:16:38.602Z,94537.00
2023-04-27T02:17:38.561Z,94541.00
2023-04-27T02:18:38.603Z,94543.00
2023-04-27T02:19:38.500Z,94548.00
2023-04-27T02:20:38.470Z,94550.00
2023-04-27T02:21:38.473Z,94552.00
2023-04-27T02:22:38.541Z,94558.00
2023-04-27T02:23:38.512Z,94558.00
2023-04-27T02:24:38.463Z,94556.00
2023-04-27T02:25:38.468Z,94554.00
2023-04-27T02:26:38.423Z,94548.00
2023-04-27T02:27:38.420Z,94544.00
2023-04-27T02:28:38.430Z,94543.00
2023-04-27T02:29:38.462Z,94543.00
2023-04-27T02:30:38.421Z,94546.00
2023-04-27T02:31:38.469Z,94554.00
2023-04-27T02:32:38.468Z,94556.00
2023-04-27T02:33:38.434Z,94558.00
2023-04-27T02:34:38.460Z,94560.00
2023-04-27T02:35:38.490Z,94558.00
2023-04-27T02:36:38.483Z,94558.00
2023-04-27T02:37:38.466Z,94556.00
2023-04-27T02:38:38.468Z,94558.00
2023-04-27T02:39:38.516Z,94554.00
2023-04-27T02:40:38.522Z,94554.00
2023-04-27T02:41:38.496Z,94552.00
2023-04-27T02:42:38.507Z,94552.00
2023-04-27T02:43:38.513Z,94550.00
2023-04-27T02:44:38.512Z,94548.00
2023-04-27T02:45:38.533Z,94546.00
2023-04-27T02:46:38.616Z,94546.00
2023-04-27T02:47:38.581Z,94546.00
2023-04-27T02:48:38.539Z,94541.00
2023-04-27T02:49:38.592Z,94539.00
2023-04-27T02:50:38.540Z,94535.00
2023-04-27T02:51:38.573Z,94533.00
2023-04-27T02:52:38.556Z,94531.00
2023-04-27T02:53:38.569Z,94529.00
2023-04-27T02:54:38.581Z,94529.00
2023-04-27T02:55:38.595Z,94527.00
2023-04-27T02:56:38.609Z,94533.00
2023-04-27T02:57:38.606Z,94531.00
2023-04-27T02:58:38.599Z,94535.00
2023-04-27T02:59:38.616Z,94535.00
2023-04-27T03:00:38.611Z,94535.00
2023-04-27T03:01:38.755Z,94535.00
2023-04-27T03:02:38.764Z,94535.00
2023-04-27T03:03:38.736Z,94537.00
2023-04-27T03:04:38.901Z,94539.00
2023-04-27T03:05:38.640Z,94543.00
2023-04-27T03:06:38.654Z,94543.00
2023-04-27T03:07:38.662Z,94541.00
2023-04-27T03:08:38.662Z,94539.00
2023-04-27T03:09:38.664Z,94539.00
2023-04-27T03:10:38.681Z,94541.00
2023-04-27T03:11:38.689Z,94543.00
2023-04-27T03:12:38.686Z,94543.00
2023-04-27T03:13:38.672Z,94539.00
2023-04-27T03:14:38.681Z,94539.00
2023-04-27T03:15:38.701Z,94531.00
2023-04-27T03:16:38.710Z,94533.00
2023-04-27T03:17:38.758Z,94529.00
2023-04-27T03:18:38.720Z,94529.00
2023-04-27T03:19:38.717Z,94537.00
2023-04-27T03:20:38.737Z,94537.00
2023-04-27T03:21:38.732Z,94541.00
2023-04-27T03:22:38.736Z,94541.00
2023-04-27T03:23:38.784Z,94541.00
2023-04-27T03:24:38.744Z,94544.00
2023-04-27T03:25:38.767Z,94544.00
2023-04-27T03:26:38.766Z,94548.00
2023-04-27T03:27:38.793Z,94550.00
2023-04-27T03:28:38.791Z,94550.00
2023-04-27T03:29:38.801Z,94552.00
2023-04-27T03:30:38.796Z,94554.00
2023-04-27T03:31:38.867Z,94552.00
2023-04-27T03:32:38.844Z,94552.00
2023-04-27T03:33:38.826Z,94552.00
2023-04-27T03:34:38.832Z,94552.00
2023-04-27T03:35:38.853Z,94550.00
2023-04-27T03:36:38.849Z,94550.00
2023-04-27T03:37:38.865Z,94550.00
2023-04-27T03:38:38.871Z,94552.00
2023-04-27T03:39:38.876Z,94552.00
2023-04-27T03:40:38.896Z,94554.00
2023-04-27T03:41:38.910Z,94554.00
2023-04-27T03:42:38.898Z,94556.00
2023-04-27T03:43:38.911Z,94554.00
2023-04-27T03:44:38.942Z,94554.00
2023-04-27T03:45:38.998Z,94558.00
2023-04-27T03:46:38.943Z,94560.00
2023-04-27T03:47:39.018Z,94564.00
2023-04-27T03:48:38.961Z,94566.00
2023-04-27T03:49:38.965Z,94566.00
2023-04-27T03:50:38.997Z,94568.00
2023-04-27T03:51:39.009Z,94568.00
2023-04-27T03:52:39.033Z,94570.00
2023-04-27T03:53:39.011Z,94574.00
2023-04-27T03:54:39.067Z,94572.00
2023-04-27T03:55:39.068Z,94574.00
2023-04-27T03:56:39.063Z,94572.00
2023-04-27T03:57:39.056Z,94572.00
2023-04-27T03:58:39.076Z,94570.00
2023-04-27T03:59:39.082Z,94572.00
2023-04-27T04:00:39.089Z,94574.00
2023-04-27T04:01:39.102Z,94578.00
2023-04-27T04:02:39.214Z,94582.00
2023-04-27T04:03:39.172Z,94582.00
2023-04-27T04:04:39.380Z,94583.00
2023-04-27T04:05:39.128Z,94582.00
2023-04-27T04:06:39.156Z,94585.00
2023-04-27T04:07:39.186Z,94585.00
2023-04-27T04:08:39.168Z,94582.00
2023-04-27T04:09:39.183Z,94580.00
2023-04-27T04:10:39.207Z,94578.00
2023-04-27T04:11:39.200Z,94582.00
2023-04-27T04:12:39.211Z,94580.00
2023-04-27T04:13:39.209Z,94582.00
2023-04-27T04:14:39.289Z,94582.00
2023-04-27T04:15:39.289Z,94582.00
2023-04-27T04:16:39.224Z,94585.00
2023-04-27T04:17:39.301Z,94585.00
2023-04-27T04:18:39.264Z,94585.00
2023-04-27T04:19:39.288Z,94587.00
2023-04-27T04:20:39.289Z,94587.00
2023-04-27T04:21:39.266Z,94591.00
2023-04-27T04:22:39.278Z,94593.00
2023-04-27T04:23:39.305Z,94591.00
2023-04-27T04:24:39.379Z,94597.00
2023-04-27T04:25:39.306Z,94599.00
2023-04-27T04:26:39.323Z,94601.00
2023-04-27T04:27:39.334Z,94605.00
2023-04-27T04:28:39.324Z,94601.00
2023-04-27T04:29:39.341Z,94605.00
2023-04-27T04:30:39.341Z,94611.00
2023-04-27T04:31:39.394Z,94611.00
2023-04-27T04:32:39.400Z,94613.00
2023-04-27T04:33:39.350Z,94617.00
2023-04-27T04:34:39.405Z,94617.00
2023-04-27T04:35:39.365Z,94621.00
2023-04-27T04:36:39.371Z,94623.00
2023-04-27T04:37:39.413Z,94625.00
2023-04-27T04:38:39.390Z,94627.00
2023-04-27T04:39:39.399Z,94629.00
2023-04-27T04:40:39.425Z,94631.00
2023-04-27T04:41:39.439Z,94631.00
2023-04-27T04:42:39.453Z,94633.00
2023-04-27T04:43:39.456Z,94635.00
2023-04-27T04:44:39.510Z,94644.00
2023-04-27T04:45:39.465Z,94644.00
2023-04-27T04:46:39.519Z,94648.00
2023-04-27T04:47:39.668Z,94646.00
2023-04-27T04:48:39.479Z,94648.00
2023-04-27T04:49:39.489Z,94648.00
2023-04-27T04:50:39.521Z,94650.00
2023-04-27T04:51:39.506Z,94652.00
2023-04-27T04:52:39.518Z,94654.00
2023-04-27T04:53:39.501Z,94656.00
2023-04-27T04:54:39.540Z,94654.00
2023-04-27T04:55:39.525Z,94654.00
2023-04-27T04:56:39.525Z,94654.00
2023-04-27T04:57:39.540Z,94654.00
2023-04-27T04:58:39.542Z,94652.00
2023-04-27T04:59:39.561Z,94652.00
2023-04-27T05:00:39.572Z,94652.00
2023-04-27T05:01:39.629Z,94654.00
2023-04-27T05:02:39.685Z,94652.00
2023-04-27T05:03:39.719Z,94652.00
2023-04-27T05:04:39.661Z,94652.00
2023-04-27T05:05:39.596Z,94654.00
2023-04-27T05:06:39.612Z,94654.00
2023-04-27T05:07:39.616Z,94658.00
2023-04-27T05:08:39.614Z,94662.00
2023-04-27T05:09:39.605Z,94666.00
2023-04-27T05:10:39.625Z,94668.00
2023-04-27T05:11:39.629Z,94668.00
2023-04-27T05:12:39.636Z,94668.00
2023-04-27T05:13:39.646Z,94668.00
2023-04-27T05:14:39.662Z,94666.00
2023-04-27T05:15:39.648Z,94668.00
2023-04-27T05:16:39.721Z,94668.00
2023-04-27T05:17:39.692Z,94670.00
2023-04-27T05:18:39.696Z,94676.00
2023-04-27T05:19:39.703Z,94674.00
2023-04-27T05:20:39.697Z,94676.00
2023-04-27T05:21:39.722Z,94678.00
2023-04-27T05:22:39.730Z,94678.00
2023-04-27T05:23:39.729Z,94678.00
2023-04-27T05:24:39.756Z,94678.00
2023-04-27T05:25:40.211Z,94680.00
2023-04-27T05:26:39.779Z,94682.00
2023-04-27T05:27:39.768Z,94680.00
2023-04-27T05:28:39.793Z,94683.00
2023-04-27T05:29:39.781Z,94683.00
2023-04-27T05:30:39.808Z,94683.00
2023-04-27T05:31:39.845Z,94683.00
2023-04-27T05:32:39.824Z,94687.00
2023-04-27T05:33:39.924Z,94685.00
2023-04-27T05:34:39.813Z,94687.00
2023-04-27T05:35:39.869Z,94687.00
2023-04-27T05:36:39.855Z,94685.00
2023-04-27T05:37:40.213Z,94682.00
2023-04-27T05:38:39.901Z,94683.00
2023-04-27T05:39:39.916Z,94680.00
2023-04-27T05:40:40.176Z,94682.00
2023-04-27T05:41:39.995Z,94683.00
2023-04-27T05:42:40.207Z,94682.00
2023-04-27T05:43:40.020Z,94683.00
2023-04-27T05:44:40.023Z,94687.00
2023-04-27T05:45:40.067Z,94689.00
2023-04-27T05:46:40.098Z,94685.00
2023-04-27T05:47:40.193Z,94689.00
2023-04-27T05:48:40.163Z,94691.00
2023-04-27T05:49:40.195Z,94691.00
2023-04-27T05:50:40.187Z,94699.00
2023-04-27T05:51:40.177Z,94695.00
2023-04-27T05:52:40.224Z,94697.00
2023-04-27T05:53:40.314Z,94697.00
2023-04-27T05:54:40.334Z,94697.00
2023-04-27T05:55:40.386Z,94697.00
2023-04-27T05:56:40.517Z,94697.00
2023-04-27T05:57:40.561Z,94695.00
2023-04-27T05:58:40.499Z,94699.00
2023-04-27T05:59:40.504Z,94697.00
2023-04-27T06:00:40.554Z,94699.00
2023-04-27T06:01:40.566Z,94697.00
2023-04-27T06:02:40.646Z,94697.00
2023-04-27T06:03:40.776Z,94695.00
2023-04-27T06:04:40.565Z,94701.00
2023-04-27T06:05:40.817Z,94703.00
2023-04-27T06:06:40.521Z,94703.00
2023-04-27T06:07:40.539Z,94703.00
2023-04-27T06:08:40.568Z,94705.00
2023-04-27T06:09:40.596Z,94705.00
2023-04-27T06:10:40.634Z,94707.00
2023-04-27T06:11:40.695Z,94707.00
2023-04-27T06:12:41.196Z,94709.00
2023-04-27T06:13:40.832Z,94707.00
2023-04-27T06:14:40.842Z,94707.00
2023-04-27T06:15:40.908Z,94711.00
2023-04-27T06:16:40.900Z,94713.00
2023-04-27T06:17:41.018Z,94715.00
2023-04-27T06:18:40.992Z,94717.00
2023-04-27T06:19:41.093Z,94715.00
2023-04-27T06:20:41.089Z,94719.00
2023-04-27T06:21:41.120Z,94715.00
2023-04-27T06:22:41.184Z,94717.00
2023-04-27T06:23:41.272Z,94715.00
2023-04-27T06:24:41.328Z,94715.00
2023-04-27T06:25:41.391Z,94713.00
2023-04-27T06:26:41.435Z,94713.00
2023-04-27T06:27:41.500Z,94713.00
2023-04-27T06:28:41.558Z,94713.00
2023-04-27T06:29:41.599Z,94715.00
2023-04-27T06:30:41.705Z,94711.00
2023-04-27T06:31:41.789Z,94711.00
2023-04-27T06:32:41.841Z,94711.00
2023-04-27T06:33:41.833Z,94711.00
2023-04-27T06:34:41.938Z,94713.00
2023-04-27T06:35:42.519Z,94711.00
2023-04-27T06:36:42.012Z,94713.00
2023-04-27T06:37:42.020Z,94713.00
2023-04-27T06:38:42.086Z,94713.00
2023-04-27T06:39:42.135Z,94717.00
2023-04-27T06:40:42.220Z,94721.00
2023-04-27T06:41:42.245Z,94721.00
2023-04-27T06:42:42.704Z,94719.00
2023-04-27T06:43:42.359Z,94721.00
2023-04-27T06:44:42.408Z,94721.00
2023-04-27T06:45:42.474Z,94719.00
2023-04-27T06:46:42.692Z,94719.00
2023-04-27T06:47:42.720Z,94719.00
2023-04-27T06:48:42.676Z,94721.00
2023-04-27T06:49:42.705Z,94719.00
2023-04-27T06:50:42.753Z,94721.00
2023-04-27T06:51:42.874Z,94717.00
2023-04-27T06:52:42.864Z,94721.00
2023-04-27T06:53:42.921Z,94725.00
2023-04-27T06:54:42.980Z,94725.00
2023-04-27T06:55:45.016Z,94725.00
2023-04-27T06:56:42.990Z,94727.00
2023-04-27T06:57:43.007Z,94723.00
2023-04-27T06:58:42.982Z,94723.00
2023-04-27T06:59:42.994Z,94725.00
2023-04-27T07:00:43.224Z,94725.00
2023-04-27T07:01:43.026Z,94723.00
2023-04-27T07:02:43.054Z,94730.00
2023-04-27T07:03:43.168Z,94729.00
2023-04-27T07:04:42.991Z,94730.00
2023-04-27T07:05:42.969Z,94732.00
2023-04-27T07:06:42.951Z,94729.00
2023-04-27T07:07:42.951Z,94727.00
2023-04-27T07:08:43.251Z,94730.00
2023-04-27T07:09:42.930Z,94734.00
2023-04-27T07:10:42.919Z,94734.00
2023-04-27T07:11:42.916Z,94734.00
2023-04-27T07:12:42.906Z,94732.00
2023-04-27T07:13:42.900Z,94734.00
2023-04-27T07:14:42.888Z,94736.00
2023-04-27T07:15:42.913Z,94736.00
2023-04-27T07:16:42.863Z,94736.00
2023-04-27T07:17:42.923Z,94736.00
2023-04-27T07:18:43.672Z,94736.00
2023-04-27T07:19:42.854Z,94738.00
2023-04-27T07:20:42.850Z,94736.00
2023-04-27T07:21:42.841Z,94738.00
2023-04-27T07:22:42.841Z,94738.00
2023-04-27T07:23:43.262Z,94740.00
2023-04-27T07:24:42.844Z,94736.00
2023-04-27T07:25:42.869Z,94734.00
2023-04-27T07:26:42.792Z,94738.00
2023-04-27T07:27:42.800Z,94742.00
2023-04-27T07:28:43.235Z,94738.00
2023-04-27T07:29:42.764Z,94738.00
2023-04-27T07:30:42.783Z,94734.00
2023-04-27T07:31:42.793Z,94732.00
2023-04-27T07:32:42.792Z,94732.00
2023-04-27T07:33:42.759Z,94734.00
2023-04-27T07:34:52.696Z,94736.00
2023-04-27T07:35:43.754Z,94736.00
2023-04-27T07:36:42.722Z,94736.00
2023-04-27T07:37:42.730Z,94740.00
2023-04-27T07:38:42.725Z,94738.00
2023-04-27T07:39:42.715Z,94738.00
2023-04-27T07:40:44.372Z,94736.00
2023-04-27T07:41:42.693Z,94736.00
2023-04-27T07:42:42.700Z,94736.00
2023-04-27T07:43:42.678Z,94740.00
2023-04-27T07:44:42.723Z,94734.00
2023-04-27T07:45:42.762Z,94736.00
2023-04-27T07:46:42.665Z,94738.00
2023-04-27T07:47:42.720Z,94740.00
2023-04-27T07:48:42.674Z,94738.00
2023-04-27T07:49:42.712Z,94738.00
2023-04-27T07:50:42.775Z,94738.00
2023-04-27T07:51:42.813Z,94740.00
2023-04-27T07:52:42.842Z,94740.00
2023-04-27T07:53:42.875Z,94740.00
2023-04-27T07:54:42.941Z,94742.00
2023-04-27T07:55:42.993Z,94736.00
2023-04-27T07:56:43.024Z,94738.00
2023-04-27T07:57:43.054Z,94738.00
2023-04-27T07:58:43.081Z,94738.00
2023-04-27T07:59:43.136Z,94738.00
2023-04-27T08:00:43.175Z,94738.00
2023-04-27T08:01:43.258Z,94738.00
2023-04-27T08:02:43.468Z,94740.00
2023-04-27T08:03:43.433Z,94742.00
2023-04-27T08:04:43.794Z,94746.00
2023-04-27T08:05:43.850Z,94752.00
2023-04-27T08:06:43.688Z,94754.00
2023-04-27T08:07:44.781Z,94752.00
2023-04-27T08:08:43.755Z,94754.00
2023-04-27T08:09:43.579Z,94754.00
2023-04-27T08:10:43.675Z,94754.00
2023-04-27T08:11:43.686Z,94754.00
2023-04-27T08:12:43.714Z,94752.00
2023-04-27T08:13:43.776Z,94750.00
2023-04-27T08:14:43.814Z,94750.00
2023-04-27T08:15:43.869Z,94746.00
2023-04-27T08:16:43.973Z,94744.00
2023-04-27T08:17:44.011Z,94742.00
2023-04-27T08:18:44.019Z,94744.00
2023-04-27T08:19:44.060Z,94744.00
2023-04-27T08:20:44.083Z,94750.00
2023-04-27T08:21:44.106Z,94746.00
2023-04-27T08:22:44.111Z,94750.00
2023-04-27T08:23:44.097Z,94748.00
2023-04-27T08:24:44.109Z,94750.00
2023-04-27T08:25:44.100Z,94744.00
2023-04-27T08:26:44.089Z,94746.00
2023-04-27T08:27:44.083Z,94740.00
2023-04-27T08:28:44.135Z,94740.00
2023-04-27T08:29:44.146Z,94740.00
2023-04-27T08:30:44.058Z,94738.00
2023-04-27T08:31:44.169Z,94736.00
2023-04-27T08:32:44.041Z,94738.00
2023-04-27T08:33:44.057Z,94738.00
2023-04-27T08:34:44.085Z,94736.00
2023-04-27T08:35:44.105Z,94736.00
2023-04-27T08:36:44.131Z,94738.00
2023-04-27T08:37:44.150Z,94736.00
2023-04-27T08:38:44.179Z,94742.00
2023-04-27T08:39:44.188Z,94740.00
2023-04-27T08:40:44.185Z,94738.00
2023-04-27T08:41:44.275Z,94736.00
2023-04-27T08:42:44.167Z,94738.00
2023-04-27T08:43:44.181Z,94738.00
2023-04-27T08:44:44.242Z,94738.00
2023-04-27T08:45:44.250Z,94738.00
2023-04-27T08:46:44.831Z,94734.00
2023-04-27T08:47:44.306Z,94738.00
2023-04-27T08:48:44.344Z,94738.00
2023-04-27T08:49:44.390Z,94740.00
2023-04-27T08:50:44.450Z,94736.00
2023-04-27T08:51:44.513Z,94736.00
2023-04-27T08:52:44.589Z,94736.00
2023-04-27T08:53:44.789Z,94738.00
2023-04-27T08:54:44.713Z,94740.00
2023-04-27T08:55:44.752Z,94730.00
2023-04-27T08:56:44.827Z,94727.00
2023-04-27T08:57:44.856Z,94730.00
2023-04-27T08:58:45.263Z,94732.00
2023-04-27T08:59:44.930Z,94732.00
2023-04-27T09:00:44.982Z,94730.00
2023-04-27T09:01:45.122Z,94732.00
2023-04-27T09:02:45.180Z,94732.00
2023-04-27T09:03:45.269Z,94730.00
2023-04-27T09:04:45.355Z,94734.00
2023-04-27T09:05:56.398Z,94736.00
2023-04-27T09:06:46.175Z,94732.00
2023-04-27T09:07:45.138Z,94729.00
2023-04-27T09:08:45.155Z,94730.00
2023-04-27T09:09:45.152Z,94727.00
2023-04-27T09:10:45.138Z,94727.00
2023-04-27T09:11:45.127Z,94727.00
2023-04-27T09:12:45.092Z,94727.00
2023-04-27T09:13:45.142Z,94725.00
2023-04-27T09:14:45.121Z,94725.00
2023-04-27T09:15:46.475Z,94719.00
2023-04-27T09:16:45.215Z,94721.00
2023-04-27T09:17:45.109Z,94721.00
2023-04-27T09:18:45.072Z,94721.00
2023-04-27T09:19:45.078Z,94717.00
2023-04-27T09:20:45.043Z,94719.00
2023-04-27T09:21:46.668Z,94719.00
2023-04-27T09:22:45.032Z,94715.00
2023-04-27T09:23:45.027Z,94717.00
2023-04-27T09:24:45.020Z,94715.00
2023-04-27T09:25:45.017Z,94717.00
2023-04-27T09:26:45.004Z,94715.00
2023-04-27T09:27:44.993Z,94713.00
2023-04-27T09:28:45.290Z,94713.00
2023-04-27T09:29:44.991Z,94715.00
2023-04-27T09:30:44.968Z,94709.00
2023-04-27T09:31:45.336Z,94717.00
2023-04-27T09:32:45.007Z,94707.00
2023-04-27T09:33:44.941Z,94703.00
2023-04-27T09:34:44.947Z,94705.00
2023-04-27T09:35:44.921Z,94701.00
2023-04-27T09:36:44.934Z,94701.00
2023-04-27T09:37:44.912Z,94697.00
2023-04-27T09:38:44.917Z,94697.00
2023-04-27T09:39:44.915Z,94697.00
2023-04-27T09:40:44.913Z,94697.00
2023-04-27T09:41:44.909Z,94697.00
2023-04-27T09:42:44.890Z,94699.00
2023-04-27T09:43:44.879Z,94699.00
2023-04-27T09:44:44.888Z,94697.00
2023-04-27T09:45:44.949Z,94699.00
2023-04-27T09:46:44.860Z,94697.00
2023-04-27T09:47:44.870Z,94693.00
2023-04-27T09:48:44.852Z,94695.00
2023-04-27T09:49:45.296Z,94693.00
2023-04-27T09:50:44.839Z,94691.00
2023-04-27T09:51:45.282Z,94691.00
2023-04-27T09:52:44.822Z,94689.00
2023-04-27T09:53:44.798Z,94685.00
2023-04-27T09:54:44.811Z,94683.00
2023-04-27T09:55:44.801Z,94682.00
2023-04-27T09:56:44.798Z,94682.00
2023-04-27T09:57:44.783Z,94682.00
2023-04-27T09:58:44.763Z,94674.00
2023-04-27T09:59:44.808Z,94670.00
2023-04-27T10:00:44.783Z,94672.00
2023-04-27T10:01:44.943Z,94672.00
2023-04-27T10:02:53.082Z,94674.00
2023-04-27T10:03:45.841Z,94674.00
2023-04-27T10:04:44.769Z,94674.00
2023-04-27T10:05:44.711Z,94668.00
2023-04-27T10:06:44.729Z,94664.00
2023-04-27T10:07:44.695Z,94660.00
2023-04-27T10:08:44.697Z,94664.00
2023-04-27T10:09:44.692Z,94662.00
2023-04-27T10:10:44.690Z,94660.00
2023-04-27T10:11:44.680Z,94658.00
2023-04-27T10:12:44.676Z,94654.00
2023-04-27T10:13:44.667Z,94646.00
2023-04-27T10:14:44.650Z,94650.00
2023-04-27T10:15:44.650Z,94648.00
2023-04-27T10:16:44.648Z,94646.00
2023-04-27T10:17:44.708Z,94646.00
2023-04-27T10:18:44.624Z,94646.00
2023-04-27T10:19:44.633Z,94648.00
2023-04-27T10:20:44.613Z,94644.00
2023-04-27T10:21:44.612Z,94644.00
2023-04-27T10:22:44.595Z,94637.00
2023-04-27T10:23:44.605Z,94637.00
2023-04-27T10:24:44.585Z,94635.00
2023-04-27T10:25:44.583Z,94637.00
2023-04-27T10:26:44.575Z,94635.00
2023-04-27T10:27:44.559Z,94629.00
2023-04-27T10:28:44.562Z,94629.00
2023-04-27T10:29:44.548Z,94633.00
2023-04-27T10:30:44.608Z,94635.00
2023-04-27T10:31:44.805Z,94633.00
2023-04-27T10:32:44.568Z,94631.00
2023-04-27T10:33:44.531Z,94623.00
2023-04-27T10:34:44.528Z,94631.00
2023-04-27T10:35:44.532Z,94629.00
2023-04-27T10:36:44.496Z,94627.00
2023-04-27T10:37:44.487Z,94625.00
2023-04-27T10:38:44.495Z,94623.00
2023-04-27T10:39:49.410Z,94623.00
2023-04-27T10:40:45.510Z,94617.00
2023-04-27T10:41:44.524Z,94619.00
2023-04-27T10:42:44.475Z,94613.00
2023-04-27T10:43:44.470Z,94613.00
2023-04-27T10:44:44.486Z,94613.00
2023-04-27T10:45:44.475Z,94609.00
2023-04-27T10:46:44.466Z,94609.00
2023-04-27T10:47:44.487Z,94611.00
2023-04-27T10:48:44.441Z,94601.00
2023-04-27T10:49:44.438Z,94603.00
2023-04-27T10:50:44.446Z,94603.00
2023-04-27T10:51:44.831Z,94601.00
2023-04-27T10:52:44.446Z,94601.00
2023-04-27T10:53:44.401Z,94599.00
2023-04-27T10:54:44.831Z,94601.00
2023-04-27T10:55:44.398Z,94595.00
2023-04-27T10:56:44.814Z,94597.00
2023-04-27T10:57:44.375Z,94591.00
2023-04-27T10:58:49.025Z,94591.00
2023-04-27T10:59:45.379Z,94589.00
2023-04-27T11:00:44.638Z,94587.00
2023-04-27T11:01:44.386Z,94589.00
2023-04-27T11:02:44.396Z,94587.00
2023-04-27T11:03:44.411Z,94587.00
2023-04-27T11:04:44.344Z,94583.00
2023-04-27T11:05:44.328Z,94583.00
2023-04-27T11:06:44.325Z,94583.00
2023-04-27T11:07:44.316Z,94587.00
2023-04-27T11:08:44.311Z,94585.00
2023-04-27T11:09:44.304Z,94585.00
2023-04-27T11:10:44.299Z,94589.00
2023-04-27T11:11:44.338Z,94587.00
2023-04-27T11:12:44.321Z,94589.00
2023-04-27T11:13:44.272Z,94589.00
2023-04-27T11:14:44.290Z,94583.00
2023-04-27T11:15:44.325Z,94583.00
2023-04-27T11:16:44.414Z,94583.00
2023-04-27T11:17:44.300Z,94582.00
2023-04-27T11:18:44.248Z,94583.00
2023-04-27T11:19:44.214Z,94583.00
2023-04-27T11:20:44.250Z,94585.00
2023-04-27T11:21:44.354Z,94587.00
2023-04-27T11:22:44.212Z,94585.00
2023-04-27T11:23:44.209Z,94582.00
2023-04-27T11:24:44.185Z,94583.00
2023-04-27T11:25:44.173Z,94580.00
2023-04-27T11:26:44.185Z,94580.00
2023-04-27T11:27:44.170Z,94578.00
2023-04-27T11:28:44.175Z,94576.00
2023-04-27T11:29:44.151Z,94574.00
2023-04-27T11:30:44.141Z,94572.00
2023-04-27T11:31:44.160Z,94572.00
2023-04-27T11:32:44.170Z,94570.00
2023-04-27T11:33:44.132Z,94570.00
2023-04-27T11:34:44.118Z,94572.00
2023-04-27T11:35:44.110Z,94568.00
2023-04-27T11:36:44.129Z,94570.00
2023-04-27T11:37:44.133Z,94568.00
2023-04-27T11:38:44.164Z,94566.00
2023-04-27T11:39:44.117Z,94566.00
2023-04-27T11:40:44.107Z,94566.00
2023-04-27T11:41:44.139Z,94564.00
2023-04-27T11:42:44.129Z,94568.00
2023-04-27T11:43:44.179Z,94564.00
2023-04-27T11:44:44.160Z,94568.00